Time;durP1;ratioP1;P1;durP2;ratioP2;P2;SDS_P1;SDS_P2;PMS_P1;PMS_P2;Temp;Humidity;BMP_temperature;BMP_pressure;BME280_temperature;BME280_humidity;BME280_pressure;Samples;Min_cycle;Max_cycle;Signal;HPM_P1;HPM_P2
2022/10/12 00:00:16;;;;;;;5.50;3.65;;;16.00;99.90;;;;;;1917704;75;21498;-82
2022/10/12 00:03:10;;;;;;;7.62;3.58;;;16.00;99.90;;;;;;1928321;73;21097;-82
2022/10/12 00:06:04;;;;;;;7.70;3.75;;;16.10;99.90;;;;;;1926037;73;21117;-82
2022/10/12 00:08:56;;;;;;;5.53;3.75;;;16.10;99.90;;;;;;1939530;73;21339;-82
2022/10/12 00:11:48;;;;;;;5.90;3.55;;;16.10;99.90;;;;;;1924444;73;21160;-82
2022/10/12 00:14:39;;;;;;;7.67;3.60;;;16.20;99.90;;;;;;1940265;73;21911;-82
2022/10/12 00:17:31;;;;;;;6.47;3.62;;;16.20;99.90;;;;;;1917563;75;21077;-82
2022/10/12 00:23:00;;;;;;;8.03;3.62;;;16.30;99.90;;;;;;1935326;72;22293;-83
2022/10/12 00:25:51;;;;;;;5.90;3.55;;;16.30;99.90;;;;;;1886291;75;21661;-83
2022/10/12 00:28:44;;;;;;;8.95;3.83;;;16.30;99.90;;;;;;1894705;75;21083;-82
2022/10/12 00:31:36;;;;;;;7.30;3.30;;;16.30;99.90;;;;;;1901373;75;21513;-82
2022/10/12 00:34:27;;;;;;;4.15;3.40;;;16.30;99.90;;;;;;1896659;75;21045;-82
2022/10/12 00:37:19;;;;;;;5.40;3.75;;;16.30;99.90;;;;;;1886491;75;21091;-82
2022/10/12 00:40:12;;;;;;;8.03;3.70;;;16.30;99.90;;;;;;1906041;75;21557;-82
2022/10/12 00:45:47;;;;;;;6.85;3.87;;;16.30;99.90;;;;;;1946490;72;22127;-81
2022/10/12 00:48:40;;;;;;;11.97;4.15;;;16.20;99.90;;;;;;1895539;75;21173;-82
2022/10/12 00:51:31;;;;;;;5.00;4.00;;;16.20;99.90;;;;;;1892365;75;21213;-82
2022/10/12 00:54:26;;;;;;;5.47;3.70;;;16.20;99.90;;;;;;1895378;75;21091;-81
2022/10/12 00:57:20;;;;;;;5.42;3.40;;;16.20;99.90;;;;;;1873146;75;21170;-82
2022/10/12 01:00:13;;;;;;;4.47;3.55;;;16.10;99.90;;;;;;1879209;75;21150;-82
2022/10/12 01:03:06;;;;;;;5.17;3.47;;;16.10;99.90;;;;;;1875249;75;21231;-81
2022/10/12 01:05:58;;;;;;;11.00;3.52;;;16.00;99.90;;;;;;1887978;75;21048;-81
2022/10/12 01:11:29;;;;;;;6.62;3.35;;;16.00;99.90;;;;;;1931318;72;22110;-81
2022/10/12 01:17:03;;;;;;;7.28;3.72;;;16.10;99.90;;;;;;1945219;72;22246;-81
2022/10/12 01:20:52;;;;;;;8.75;3.45;;;16.00;99.90;;;;;;1886632;75;21103;-84
2022/10/12 01:24:22;;;;;;;7.28;3.58;;;16.00;99.90;;;;;;1867444;75;21157;-83
2022/10/12 01:27:35;;;;;;;4.47;3.00;;;16.00;99.90;;;;;;1873195;75;21187;-82
2022/10/12 01:30:28;;;;;;;7.80;3.58;;;15.90;99.90;;;;;;1883976;75;21059;-82
2022/10/12 01:36:06;;;;;;;6.50;3.60;;;15.80;99.90;;;;;;1956962;72;22579;-81
2022/10/12 01:39:01;;;;;;;4.97;3.20;;;15.90;99.90;;;;;;1924170;73;21637;-83
2022/10/12 01:41:55;;;;;;;4.35;3.08;;;15.90;99.90;;;;;;1929008;73;21063;-82
2022/10/12 01:47:28;;;;;;;4.95;3.58;;;15.90;99.90;;;;;;1946586;72;22134;-81
2022/10/12 01:50:22;;;;;;;6.95;3.85;;;15.80;99.90;;;;;;1887383;75;21074;-81
2022/10/12 01:56:01;;;;;;;8.25;3.40;;;15.70;99.90;;;;;;1932711;72;22256;-81
2022/10/12 01:58:58;;;;;;;6.47;3.42;;;15.70;99.90;;;;;;1908419;74;21121;-81
2022/10/12 02:01:52;;;;;;;7.40;3.27;;;15.60;99.90;;;;;;1895060;75;21055;-82
2022/10/12 02:04:47;;;;;;;5.03;3.20;;;15.60;99.90;;;;;;1885265;75;21622;-81
2022/10/12 02:10:22;;;;;;;6.90;3.80;;;15.50;99.90;;;;;;1941564;72;22265;-81
2022/10/12 02:13:15;;;;;;;4.80;3.30;;;15.50;99.90;;;;;;1906660;75;21095;-82
2022/10/12 02:16:10;;;;;;;6.50;3.65;;;15.50;99.90;;;;;;1922224;74;21027;-82
2022/10/12 02:19:03;;;;;;;7.37;4.28;;;15.60;99.90;;;;;;1861210;76;21093;-82
2022/10/12 02:21:56;;;;;;;9.78;6.42;;;15.60;99.90;;;;;;1931435;74;21525;-83
2022/10/12 02:24:51;;;;;;;9.75;8.40;;;15.60;99.90;;;;;;1930636;74;21043;-82
2022/10/12 02:30:22;;;;;;;6.75;5.90;;;15.70;99.90;;;;;;1946668;72;22258;-82
2022/10/12 02:35:56;;;;;;;10.23;5.12;;;15.70;99.90;;;;;;1965126;72;22301;-81
2022/10/12 02:38:52;;;;;;;8.23;4.95;;;15.70;99.90;;;;;;1917669;73;21119;-81
2022/10/12 02:41:47;;;;;;;7.45;4.33;;;15.70;99.90;;;;;;1917868;75;21098;-81
2022/10/12 02:44:41;;;;;;;7.75;4.37;;;15.70;99.90;;;;;;1918811;73;21074;-81
2022/10/12 02:47:34;;;;;;;9.10;4.70;;;15.70;99.90;;;;;;1917840;73;21098;-81
2022/10/12 02:50:27;;;;;;;5.55;4.45;;;15.70;99.90;;;;;;1938277;73;21116;-81
2022/10/12 02:53:18;;;;;;;7.42;4.47;;;15.70;99.90;;;;;;1880525;76;21133;-82
2022/10/12 02:56:13;;;;;;;6.47;4.15;;;15.70;99.90;;;;;;1924875;73;21040;-82
2022/10/12 02:59:04;;;;;;;6.45;4.33;;;15.80;99.90;;;;;;1931984;73;21555;-81
2022/10/12 03:01:56;;;;;;;6.95;4.80;;;15.80;99.90;;;;;;1947613;73;21613;-82
2022/10/12 03:04:47;;;;;;;6.33;4.55;;;15.80;99.90;;;;;;1916248;73;21058;-81
2022/10/12 03:10:18;;;;;;;8.25;6.20;;;15.80;99.90;;;;;;1951553;72;22174;-81
2022/10/12 03:13:09;;;;;;;8.98;6.40;;;15.70;99.90;;;;;;1919529;74;21103;-81
2022/10/12 03:16:05;;;;;;;9.45;4.78;;;15.70;99.90;;;;;;1892942;75;21090;-82
2022/10/12 03:21:36;;;;;;;12.35;5.25;;;15.70;99.90;;;;;;1927139;72;22236;-81
2022/10/12 03:24:27;;;;;;;7.62;4.22;;;15.70;99.90;;;;;;1888505;75;21141;-82
2022/10/12 03:27:18;;;;;;;8.05;3.87;;;15.60;99.90;;;;;;1873293;75;21063;-82
2022/10/12 03:30:12;;;;;;;7.12;3.70;;;15.60;99.90;;;;;;1873203;75;21088;-81
2022/10/12 03:33:03;;;;;;;7.90;3.83;;;15.60;99.90;;;;;;1884076;75;21214;-82
2022/10/12 03:35:55;;;;;;;6.95;3.90;;;15.60;99.90;;;;;;1894862;75;21095;-82
2022/10/12 03:38:46;;;;;;;6.80;3.72;;;15.60;99.90;;;;;;1879781;75;21168;-82
2022/10/12 03:44:19;;;;;;;8.28;4.03;;;15.60;99.90;;;;;;1961678;72;22192;-82
2022/10/12 03:47:10;;;;;;;7.87;3.80;;;15.50;99.90;;;;;;1928931;73;21158;-82
2022/10/12 03:50:01;;;;;;;5.50;3.52;;;15.50;99.90;;;;;;1917693;75;21098;-82
2022/10/12 03:52:54;;;;;;;7.78;4.10;;;15.40;99.90;;;;;;1917641;75;21096;-81
2022/10/12 03:55:45;;;;;;;8.23;4.42;;;15.40;99.90;;;;;;1917534;73;21151;-82
2022/10/12 03:58:37;;;;;;;8.60;4.50;;;15.40;99.90;;;;;;1940281;73;21022;-83
2022/10/12 04:01:28;;;;;;;6.92;4.37;;;15.40;99.90;;;;;;1935554;73;21067;-83
2022/10/12 04:07:03;;;;;;;8.83;7.42;;;15.40;99.90;;;;;;1944553;72;22117;-81
2022/10/12 04:09:55;;;;;;;10.78;7.75;;;15.40;99.90;;;;;;1938720;73;21176;-82
2022/10/12 04:12:46;;;;;;;7.30;5.90;;;15.40;99.90;;;;;;1923006;73;21084;-82
2022/10/12 04:18:20;;;;;;;8.78;7.50;;;15.50;99.90;;;;;;1965636;72;22126;-82
2022/10/12 04:21:13;;;;;;;8.23;7.03;;;15.40;99.90;;;;;;1930673;74;21121;-83
2022/10/12 04:24:06;;;;;;;10.45;5.75;;;15.40;99.90;;;;;;1918956;74;21047;-82
2022/10/12 04:26:58;;;;;;;8.23;6.08;;;15.40;99.90;;;;;;1913584;74;21087;-82
2022/10/12 04:32:31;;;;;;;6.95;5.15;;;15.50;99.90;;;;;;1924301;72;22249;-82
2022/10/12 04:38:02;;;;;;;7.17;5.00;;;15.60;99.90;;;;;;1934523;72;22171;-80
2022/10/12 04:40:53;;;;;;;8.73;4.70;;;15.60;99.90;;;;;;1909048;75;21090;-84
2022/10/12 04:46:23;;;;;;;8.48;4.85;;;15.60;99.90;;;;;;1936866;72;22150;-82
2022/10/12 04:49:15;;;;;;;9.13;4.60;;;15.50;99.90;;;;;;1895009;75;21108;-88
2022/10/12 04:52:07;;;;;;;8.63;4.85;;;15.50;99.90;;;;;;1873147;75;21137;-85
2022/10/12 04:54:58;;;;;;;9.93;5.28;;;15.60;99.90;;;;;;1882721;75;21189;-83
2022/10/12 04:57:50;;;;;;;8.23;4.00;;;15.60;99.90;;;;;;1888108;75;21059;-82
2022/10/12 05:03:20;;;;;;;11.25;5.03;;;15.60;99.90;;;;;;1938443;72;22224;-81
2022/10/12 05:06:12;;;;;;;6.22;4.40;;;15.60;99.90;;;;;;1918660;74;21042;-84
2022/10/12 05:09:04;;;;;;;8.10;4.60;;;15.60;99.90;;;;;;1896880;75;21509;-81
2022/10/12 05:14:35;;;;;;;9.55;4.60;;;15.60;99.90;;;;;;1950772;72;22133;-83
2022/10/12 05:17:26;;;;;;;7.35;4.28;;;15.60;99.90;;;;;;1931756;73;21062;-81
2022/10/12 05:20:21;;;;;;;8.70;4.67;;;15.50;99.90;;;;;;1936195;73;21156;-81
2022/10/12 05:23:13;;;;;;;6.80;4.30;;;15.60;99.90;;;;;;1931134;73;21121;-85
2022/10/12 05:28:44;;;;;;;5.67;4.37;;;15.50;99.90;;;;;;1942196;72;22142;-83
2022/10/12 05:31:36;;;;;;;10.23;4.72;;;15.50;99.90;;;;;;1921929;73;21118;-82
2022/10/12 05:34:28;;;;;;;7.05;4.33;;;15.50;99.90;;;;;;1914235;73;21132;-82
2022/10/12 05:37:20;;;;;;;7.33;4.40;;;15.40;99.90;;;;;;1927956;73;21725;-82
2022/10/12 05:40:13;;;;;;;7.00;4.53;;;15.40;99.90;;;;;;1923702;73;21040;-82
2022/10/12 05:43:05;;;;;;;8.00;4.55;;;15.40;99.90;;;;;;1909342;73;21101;-82
2022/10/12 05:45:56;;;;;;;9.30;4.67;;;15.40;99.90;;;;;;1898352;73;21200;-82
2022/10/12 05:48:48;;;;;;;9.55;4.58;;;15.40;99.90;;;;;;1919766;73;21129;-82
2022/10/12 05:51:40;;;;;;;10.40;4.22;;;15.40;99.90;;;;;;1930391;73;21278;-82
2022/10/12 05:54:31;;;;;;;14.00;5.53;;;15.40;99.90;;;;;;1918043;73;21526;-85
2022/10/12 05:57:23;;;;;;;10.93;4.85;;;15.40;99.90;;;;;;1936984;73;21049;-84
2022/10/12 06:00:16;;;;;;;9.30;4.50;;;15.40;99.90;;;;;;1919085;73;21078;-85
2022/10/12 06:05:46;;;;;;;8.53;4.80;;;15.40;99.90;;;;;;1961640;72;22228;-86
2022/10/12 06:08:38;;;;;;;10.80;4.60;;;15.40;99.90;;;;;;1919526;73;21171;-86
2022/10/12 06:11:30;;;;;;;8.50;4.17;;;15.40;99.90;;;;;;1916354;73;21197;-86
2022/10/12 06:14:23;;;;;;;6.47;4.10;;;15.50;99.90;;;;;;1925677;73;21093;-85
2022/10/12 06:17:15;;;;;;;8.43;4.40;;;15.50;99.90;;;;;;1922489;73;21062;-86
2022/10/12 06:20:08;;;;;;;11.95;4.35;;;15.50;99.90;;;;;;1927049;73;21156;-86
2022/10/12 06:25:39;;;;;;;11.75;5.28;;;15.60;99.90;;;;;;1930138;72;22194;-87
2022/10/12 06:28:30;;;;;;;9.15;4.85;;;15.60;99.90;;;;;;1914376;75;21146;-87
2022/10/12 06:31:22;;;;;;;8.48;4.90;;;15.60;99.90;;;;;;1895206;75;21047;-86
2022/10/12 06:34:13;;;;;;;10.03;4.78;;;15.60;99.90;;;;;;1906710;75;21113;-86
2022/10/12 06:37:05;;;;;;;10.53;4.83;;;15.70;99.90;;;;;;1900164;75;21063;-85
2022/10/12 06:39:57;;;;;;;10.82;4.95;;;15.70;99.90;;;;;;1901318;75;21161;-85
2022/10/12 06:42:50;;;;;;;7.45;4.37;;;15.70;99.90;;;;;;1913560;75;21047;-86
2022/10/12 06:45:42;;;;;;;7.47;4.30;;;15.80;99.90;;;;;;1906736;75;21117;-86
2022/10/12 06:51:13;;;;;;;6.22;3.95;;;15.90;99.90;;;;;;1945833;72;22318;-87
2022/10/12 06:54:04;;;;;;;10.20;5.10;;;15.90;99.90;;;;;;1907162;75;21195;-88
2022/10/12 06:56:56;;;;;;;12.13;5.05;;;16.00;99.90;;;;;;1902851;75;21050;-86
2022/10/12 06:59:50;;;;;;;7.40;4.35;;;16.10;99.90;;;;;;1909423;75;21054;-85
2022/10/12 07:05:23;;;;;;;7.30;4.17;;;16.20;99.90;;;;;;1975029;72;22161;-87
2022/10/12 07:08:14;;;;;;;7.17;4.53;;;16.30;99.90;;;;;;1921931;73;21160;-87
2022/10/12 07:11:08;;;;;;;7.80;4.17;;;16.30;99.90;;;;;;1915485;73;21151;-85
2022/10/12 07:14:00;;;;;;;7.75;4.22;;;16.40;99.90;;;;;;1913369;73;21145;-86
2022/10/12 07:16:52;;;;;;;9.85;4.28;;;16.50;99.90;;;;;;1914965;74;21059;-86
2022/10/12 07:19:46;;;;;;;5.95;3.90;;;16.70;99.90;;;;;;1921062;73;21098;-85
2022/10/12 07:22:37;;;;;;;6.47;4.50;;;16.80;99.90;;;;;;1944385;73;21042;-86
2022/10/12 07:25:29;;;;;;;9.85;4.85;;;16.90;99.90;;;;;;1917572;75;21510;-85
2022/10/12 07:28:22;;;;;;;7.95;4.50;;;17.00;99.90;;;;;;1926975;73;21031;-85
2022/10/12 07:31:14;;;;;;;11.03;4.15;;;17.10;99.90;;;;;;1921857;73;21473;-87
2022/10/12 07:34:06;;;;;;;9.23;4.62;;;17.10;99.90;;;;;;1935111;73;21066;-85
2022/10/12 07:42:28;;;;;;;7.97;4.60;;;17.20;99.90;;;;;;1937751;72;22149;-84
2022/10/12 07:45:19;;;;;;;7.78;4.33;;;17.20;99.90;;;;;;1895533;75;21164;-85
2022/10/12 07:48:10;;;;;;;7.85;4.40;;;17.20;99.90;;;;;;1893121;75;21134;-84
2022/10/12 07:51:06;;;;;;;9.63;4.60;;;17.20;99.90;;;;;;1889959;75;21155;-84
2022/10/12 07:53:59;;;;;;;8.03;4.22;;;17.20;99.90;;;;;;1898311;75;21113;-84
2022/10/12 07:56:51;;;;;;;11.57;3.80;;;17.30;99.90;;;;;;1909219;75;21129;-84
2022/10/12 07:59:42;;;;;;;7.22;4.33;;;17.30;99.90;;;;;;1898404;75;21036;-84
2022/10/12 08:02:34;;;;;;;7.95;4.00;;;17.30;99.90;;;;;;1884561;75;21054;-84
2022/10/12 08:05:28;;;;;;;9.15;4.15;;;17.40;99.90;;;;;;1906227;75;21118;-84
2022/10/12 08:08:20;;;;;;;7.25;3.45;;;17.50;99.90;;;;;;1905176;75;21191;-83
2022/10/12 08:11:13;;;;;;;8.48;3.92;;;17.50;99.90;;;;;;1910684;75;21086;-84
2022/10/12 08:14:05;;;;;;;8.35;3.95;;;17.60;99.90;;;;;;1884743;76;21118;-83
2022/10/12 08:16:57;;;;;;;6.47;4.58;;;17.70;99.90;;;;;;1885262;75;21059;-84
2022/10/12 08:22:46;;;;;;;9.05;4.53;;;18.00;99.90;;;;;;1932874;72;22181;-83
2022/10/12 08:25:38;;;;;;;7.30;4.28;;;18.00;99.90;;;;;;1889959;75;21059;-83
2022/10/12 08:28:29;;;;;;;8.75;4.05;;;18.10;99.90;;;;;;1887031;75;21565;-82
2022/10/12 08:31:22;;;;;;;9.70;4.17;;;18.20;99.90;;;;;;1904168;75;21054;-83
2022/10/12 08:34:14;;;;;;;11.30;4.22;;;18.30;99.90;;;;;;1902485;75;21047;-83
2022/10/12 08:37:06;;;;;;;9.38;4.35;;;18.30;99.90;;;;;;1894097;75;22165;-83
2022/10/12 08:39:58;;;;;;;8.00;4.10;;;18.40;99.90;;;;;;1907921;75;21236;-83
2022/10/12 08:45:37;;;;;;;6.72;4.33;;;18.70;99.90;;;;;;1940757;72;22260;-85
2022/10/12 08:51:14;;;;;;;8.28;4.33;;;18.70;99.90;;;;;;1945027;72;22142;-84
2022/10/12 08:54:10;;;;;;;8.95;3.65;;;18.70;99.90;;;;;;1885276;75;21063;-84
2022/10/12 08:57:05;;;;;;;11.97;5.08;;;18.90;99.90;;;;;;1895295;75;21580;-84
2022/10/12 08:59:58;;;;;;;7.47;4.25;;;19.00;99.90;;;;;;1883581;75;21039;-83
2022/10/12 09:05:39;;;;;;;7.42;5.00;;;19.10;99.90;;;;;;1912187;72;28010;-84
2022/10/12 09:08:35;;;;;;;8.33;4.28;;;19.50;99.90;;;;;;1910893;75;21107;-84
2022/10/12 09:11:36;;;;;;;8.28;4.10;;;19.40;99.90;;;;;;1912121;75;21098;-84
2022/10/12 09:14:30;;;;;;;9.88;4.90;;;19.30;99.90;;;;;;1902048;75;21142;-83
2022/10/12 09:17:30;;;;;;;15.63;5.20;;;19.30;99.90;;;;;;1884706;76;21140;-82
2022/10/12 09:20:25;;;;;;;9.23;4.70;;;19.30;99.90;;;;;;1884683;75;21066;-82
2022/10/12 09:23:25;;;;;;;11.50;5.30;;;19.30;99.90;;;;;;1888629;75;21121;-83
2022/10/12 09:26:19;;;;;;;10.13;5.50;;;19.30;99.90;;;;;;1904511;75;21175;-83
2022/10/12 09:29:24;;;;;;;9.65;5.05;;;19.40;99.90;;;;;;1898704;75;21058;-82
2022/10/12 09:32:33;;;;;;;7.90;4.33;;;19.50;99.90;;;;;;1888712;75;21122;-82
2022/10/12 09:35:25;;;;;;;9.03;4.50;;;19.50;99.90;;;;;;1904367;75;21103;-82
2022/10/12 09:38:20;;;;;;;5.78;4.42;;;19.70;99.90;;;;;;1899250;75;21161;-81
2022/10/12 09:41:19;;;;;;;7.83;4.15;;;19.80;99.90;;;;;;1912733;75;21191;-82
2022/10/12 09:44:16;;;;;;;10.45;4.50;;;19.70;99.90;;;;;;1906688;75;21075;-81
2022/10/12 09:47:11;;;;;;;9.87;4.57;;;19.70;99.90;;;;;;1911433;75;21090;-83
2022/10/12 09:55:34;;;;;;;9.85;4.67;;;19.90;99.90;;;;;;1942533;72;22223;-81
2022/10/12 10:01:20;;;;;;;9.08;4.58;;;19.80;99.90;;;;;;1966850;72;22287;-81
2022/10/12 10:04:16;;;;;;;5.87;4.40;;;19.70;99.90;;;;;;1924141;73;21182;-81
2022/10/12 10:07:26;;;;;;;9.60;4.50;;;19.90;99.90;;;;;;1926721;73;21608;-81
2022/10/12 10:10:21;;;;;;;11.25;4.78;;;19.90;99.90;;;;;;1944052;73;21133;-81
2022/10/12 10:16:03;;;;;;;11.55;4.65;;;20.00;99.90;;;;;;1960826;72;22161;-82
2022/10/12 10:19:00;;;;;;;10.78;4.53;;;20.10;99.90;;;;;;1927335;73;21102;-82
2022/10/12 10:21:53;;;;;;;7.37;4.55;;;20.20;99.90;;;;;;1917699;75;21117;-81
2022/10/12 10:24:45;;;;;;;9.28;4.90;;;20.30;99.90;;;;;;1925121;73;21115;-81
2022/10/12 10:27:40;;;;;;;11.40;4.65;;;20.50;99.90;;;;;;1917539;73;21061;-81
2022/10/12 10:30:31;;;;;;;10.30;4.70;;;20.70;99.90;;;;;;1917348;75;21294;-81
2022/10/12 10:36:07;;;;;;;7.62;3.92;;;20.70;99.90;;;;;;1937355;72;22688;-82
2022/10/12 10:39:03;;;;;;;10.10;4.17;;;20.70;99.90;;;;;;1891128;75;21076;-81
2022/10/12 10:41:58;;;;;;;7.60;4.25;;;20.80;99.90;;;;;;1917556;75;21471;-82
2022/10/12 10:47:33;;;;;;;10.32;4.17;;;21.00;99.90;;;;;;1935754;72;22585;-83
2022/10/12 10:50:28;;;;;;;9.48;4.45;;;21.10;99.90;;;;;;1886284;75;21176;-81
2022/10/12 10:53:21;;;;;;;9.90;4.22;;;21.20;99.90;;;;;;1910323;75;21046;-80
2022/10/12 10:56:16;;;;;;;8.48;3.58;;;21.20;99.90;;;;;;1905801;75;21052;-80
2022/10/12 10:59:12;;;;;;;8.03;3.75;;;21.00;99.90;;;;;;1914388;75;21098;-80
2022/10/12 11:02:11;;;;;;;8.23;4.10;;;20.90;99.90;;;;;;1912363;75;21059;-81
2022/10/12 11:05:09;;;;;;;5.40;3.80;;;21.00;99.90;;;;;;1899262;75;21106;-80
2022/10/12 11:08:05;;;;;;;8.43;4.20;;;21.00;99.90;;;;;;1907200;75;21088;-80
2022/10/12 11:16:23;;;;;;;6.58;4.03;;;21.10;99.90;;;;;;1945036;72;22166;-80
2022/10/12 11:21:59;;;;;;;6.92;3.90;;;21.30;99.90;;;;;;1945062;72;22204;-80
2022/10/12 11:27:33;;;;;;;6.00;3.45;;;21.30;99.90;;;;;;1943854;72;22158;-80
2022/10/12 11:30:26;;;;;;;6.67;4.05;;;21.30;99.90;;;;;;1920521;74;21117;-79
2022/10/12 11:35:59;;;;;;;7.35;3.35;;;21.40;99.90;;;;;;1942783;72;22178;-79
2022/10/12 11:38:54;;;;;;;8.15;3.90;;;21.40;99.90;;;;;;1900550;75;21114;-80
2022/10/12 11:41:49;;;;;;;5.85;3.42;;;21.60;99.90;;;;;;1890779;75;21088;-80
2022/10/12 11:44:44;;;;;;;7.12;3.67;;;21.70;99.90;;;;;;1873010;75;21151;-80
2022/10/12 11:47:40;;;;;;;7.53;3.98;;;21.80;99.90;;;;;;1874030;75;21125;-79
2022/10/12 11:50:35;;;;;;;6.25;4.12;;;21.80;99.90;;;;;;1878648;75;21151;-81
2022/10/12 11:53:30;;;;;;;5.75;3.45;;;21.80;99.90;;;;;;1890831;75;21044;-80
2022/10/12 11:56:25;;;;;;;15.85;4.28;;;22.00;99.90;;;;;;1893703;75;21084;-80
2022/10/12 12:02:22;;;;;;;9.70;3.95;;;22.00;99.90;;;;;;1961568;72;22154;-80
2022/10/12 12:05:16;;;;;;;14.20;4.40;;;22.20;99.90;;;;;;1930253;73;21051;-80
2022/10/12 12:08:10;;;;;;;14.87;4.75;;;22.20;99.90;;;;;;1919717;73;21164;-80
2022/10/12 12:11:20;;;;;;;13.20;4.40;;;22.20;99.90;;;;;;1924590;73;21111;-80
2022/10/12 12:14:42;;;;;;;24.72;5.65;;;22.20;99.90;;;;;;1918965;73;21087;-79
2022/10/12 12:17:35;;;;;;;10.65;3.70;;;22.20;99.90;;;;;;1916514;73;21066;-81
2022/10/12 12:23:51;;;;;;;10.03;3.98;;;22.10;99.90;;;;;;1939993;72;22144;-79
2022/10/12 12:26:47;;;;;;;10.05;4.05;;;22.30;99.90;;;;;;1874084;75;21051;-78
2022/10/12 12:29:38;;;;;;;7.42;3.42;;;22.20;99.90;;;;;;1872663;75;21172;-79
2022/10/12 12:32:44;;;;;;;7.30;3.90;;;22.00;99.90;;;;;;1874446;75;21113;-79
2022/10/12 12:35:39;;;;;;;9.03;3.55;;;21.80;99.90;;;;;;1897921;75;21221;-80
2022/10/12 12:38:33;;;;;;;9.18;4.45;;;21.60;99.90;;;;;;1884081;75;21080;-80
2022/10/12 12:44:12;;;;;;;10.30;4.22;;;21.20;99.90;;;;;;1944893;72;22098;-78
2022/10/12 12:47:25;;;;;;;18.80;4.63;;;21.20;99.90;;;;;;1896091;74;21078;-80
2022/10/12 12:56:07;;;;;;;8.58;4.37;;;21.10;99.90;;;;;;1944372;72;22268;-78
2022/10/12 13:01:51;;;;;;;10.03;3.92;;;21.00;99.90;;;;;;1946687;72;22216;-78
2022/10/12 13:10:41;;;;;;;8.90;3.58;;;21.00;99.90;;;;;;1971226;72;22118;-78
2022/10/12 13:13:53;;;;;;;5.05;3.37;;;21.00;99.90;;;;;;1932333;73;21054;-78
2022/10/12 13:16:57;;;;;;;10.50;3.75;;;21.10;99.90;;;;;;1925093;73;21047;-78
2022/10/12 13:19:53;;;;;;;6.72;3.47;;;21.10;99.90;;;;;;1928258;73;21074;-78
2022/10/12 13:25:30;;;;;;;13.28;4.00;;;21.30;99.90;;;;;;1949271;72;22249;-78
2022/10/12 13:31:05;;;;;;;10.20;3.70;;;21.50;99.90;;;;;;1929625;72;22284;-80
2022/10/12 13:34:02;;;;;;;11.73;4.37;;;21.50;99.90;;;;;;1917617;73;21107;-80
2022/10/12 13:36:58;;;;;;;6.67;3.90;;;21.50;99.90;;;;;;1902125;75;21030;-79
2022/10/12 13:39:53;;;;;;;6.97;3.45;;;21.50;99.90;;;;;;1915914;73;21164;-78
2022/10/12 13:42:42;;;;;;;9.28;3.45;;;21.50;99.90;;;;;;1891501;75;21163;-78
2022/10/12 13:45:34;;;;;;;8.60;3.50;;;21.50;99.90;;;;;;1904266;75;21120;-78
2022/10/12 13:51:07;;;;;;;4.50;2.72;;;21.50;99.90;;;;;;1947690;72;22226;-80
2022/10/12 13:53:58;;;;;;;7.78;3.30;;;21.60;99.90;;;;;;1903100;75;21356;-78
2022/10/12 13:56:53;;;;;;;11.80;3.62;;;21.60;99.90;;;;;;1891952;75;21110;-78
2022/10/12 13:59:45;;;;;;;6.47;3.40;;;21.50;99.90;;;;;;1902014;75;21605;-78
2022/10/12 14:02:36;;;;;;;6.92;3.52;;;21.50;99.90;;;;;;1888470;75;21150;-78
2022/10/12 14:08:11;;;;;;;7.45;3.45;;;21.50;99.90;;;;;;1963666;72;22193;-77
2022/10/12 14:11:05;;;;;;;6.72;3.25;;;21.60;99.90;;;;;;1917619;73;21060;-78
2022/10/12 14:16:35;;;;;;;5.87;3.25;;;22.50;99.90;;;;;;1929835;72;22219;-77
2022/10/12 14:19:44;;;;;;;19.90;3.95;;;23.30;99.90;;;;;;1907615;74;21083;-78
2022/10/12 14:22:35;;;;;;;7.70;3.65;;;23.80;99.90;;;;;;1888522;75;21159;-78
2022/10/12 14:25:29;;;;;;;5.10;3.27;;;23.60;99.90;;;;;;1900652;75;21136;-78
2022/10/12 14:28:25;;;;;;;6.97;3.40;;;23.90;99.90;;;;;;1889956;75;21058;-78
2022/10/12 14:31:17;;;;;;;8.40;3.60;;;24.40;99.90;;;;;;1884626;75;21121;-78
2022/10/12 14:34:29;;;;;;;5.87;3.30;;;24.30;99.90;;;;;;1898972;75;21165;-78
2022/10/12 14:37:29;;;;;;;6.12;3.70;;;23.50;99.90;;;;;;1893458;75;21031;-77
2022/10/12 14:40:39;;;;;;;4.47;3.60;;;22.90;99.90;;;;;;1883065;75;21171;-78
2022/10/12 14:43:30;;;;;;;3.98;3.00;;;22.50;99.90;;;;;;1893759;75;21075;-78
2022/10/12 14:46:21;;;;;;;6.70;2.98;;;22.40;99.90;;;;;;1893307;74;21087;-77
2022/10/12 14:49:17;;;;;;;5.78;3.25;;;22.40;99.90;;;;;;1895741;74;21091;-77
2022/10/12 14:52:12;;;;;;;4.92;3.05;;;22.50;99.90;;;;;;1908010;75;21040;-77
2022/10/12 14:55:03;;;;;;;6.55;3.35;;;22.50;99.90;;;;;;1922325;74;21063;-77
2022/10/12 15:00:36;;;;;;;6.87;3.25;;;22.30;99.90;;;;;;1926337;72;22326;-78
2022/10/12 15:03:27;;;;;;;7.37;3.20;;;22.30;99.90;;;;;;1900208;75;21103;-78
2022/10/12 15:06:19;;;;;;;7.72;2.72;;;22.30;99.90;;;;;;1892827;75;21084;-77
2022/10/12 15:09:10;;;;;;;7.45;2.85;;;22.30;99.90;;;;;;1898854;75;21067;-77
2022/10/12 15:12:02;;;;;;;6.85;2.52;;;22.30;99.90;;;;;;1885233;75;21128;-77
2022/10/12 15:14:56;;;;;;;7.70;3.02;;;22.20;99.90;;;;;;1895458;75;21626;-77
2022/10/12 15:17:47;;;;;;;5.20;2.58;;;22.20;99.90;;;;;;1892603;75;21108;-77
2022/10/12 15:20:39;;;;;;;5.80;3.20;;;22.30;99.90;;;;;;1884502;75;21131;-78
2022/10/12 15:26:13;;;;;;;6.03;2.67;;;24.50;99.90;;;;;;1933320;72;22246;-78
2022/10/12 15:29:05;;;;;;;5.10;2.55;;;24.90;99.90;;;;;;1884643;75;21187;-77
2022/10/12 15:31:57;;;;;;;5.55;3.08;;;25.00;99.90;;;;;;1917383;73;21087;-77
2022/10/12 15:34:49;;;;;;;7.87;2.60;;;25.10;99.90;;;;;;1917360;75;21142;-77
2022/10/12 15:37:40;;;;;;;7.30;2.90;;;25.40;99.90;;;;;;1917163;75;21158;-77
2022/10/12 15:40:34;;;;;;;5.58;2.58;;;25.40;99.90;;;;;;1918133;73;21542;-77
2022/10/12 15:46:05;;;;;;;4.28;2.60;;;25.40;99.90;;;;;;1942711;72;22270;-76
2022/10/12 15:48:56;;;;;;;6.97;2.62;;;25.30;99.90;;;;;;1887332;74;21151;-77
2022/10/12 15:51:49;;;;;;;9.05;3.00;;;25.20;99.90;;;;;;1894365;74;21078;-77
2022/10/12 15:54:40;;;;;;;5.25;2.62;;;25.30;99.90;;;;;;1915348;74;21030;-77
2022/10/12 15:57:33;;;;;;;8.93;2.80;;;25.20;99.90;;;;;;1891878;75;21557;-77
2022/10/12 16:00:26;;;;;;;5.83;2.50;;;24.90;99.90;;;;;;1894662;74;21512;-77
2022/10/12 16:08:39;;;;;;;6.80;2.70;;;23.50;99.90;;;;;;1943635;72;22161;-77
2022/10/12 16:11:30;;;;;;;7.15;2.90;;;23.00;99.90;;;;;;1938361;73;21109;-77
2022/10/12 16:14:22;;;;;;;4.80;2.45;;;22.40;99.90;;;;;;1938108;73;21076;-77
2022/10/12 16:17:14;;;;;;;4.53;2.58;;;22.10;99.90;;;;;;1930251;73;21060;-77
2022/10/12 16:22:47;;;;;;;8.50;2.67;;;21.70;99.90;;;;;;1935061;72;22294;-77
2022/10/12 16:25:38;;;;;;;5.10;2.70;;;21.50;99.90;;;;;;1902415;75;21148;-77
2022/10/12 16:28:29;;;;;;;6.42;2.90;;;21.50;99.90;;;;;;1884139;75;21047;-77
2022/10/12 16:31:21;;;;;;;5.58;2.87;;;21.30;99.90;;;;;;1896050;75;21143;-77
2022/10/12 16:34:12;;;;;;;6.53;3.35;;;21.20;99.90;;;;;;1895173;75;21102;-76
2022/10/12 16:37:04;;;;;;;5.92;2.90;;;21.00;99.90;;;;;;1894897;75;21146;-77
2022/10/12 16:42:36;;;;;;;5.80;2.65;;;20.90;99.90;;;;;;1942245;72;22098;-76
2022/10/12 16:45:26;;;;;;;5.85;3.30;;;20.80;99.90;;;;;;1893879;75;21157;-77
2022/10/12 16:50:57;;;;;;;8.30;3.17;;;20.80;99.90;;;;;;1949604;72;22178;-77
2022/10/12 16:53:48;;;;;;;7.80;2.83;;;20.80;99.90;;;;;;1908414;74;21107;-77
2022/10/12 16:59:18;;;;;;;9.38;3.20;;;20.70;99.90;;;;;;1939445;72;22130;-77
2022/10/12 17:02:12;;;;;;;8.23;3.47;;;20.60;99.90;;;;;;1907910;75;21123;-77
2022/10/12 17:05:05;;;;;;;11.93;3.65;;;20.50;99.90;;;;;;1887679;75;21099;-77
2022/10/12 17:07:56;;;;;;;9.15;3.17;;;20.50;99.90;;;;;;1896983;75;21129;-77
2022/10/12 17:10:48;;;;;;;5.37;3.12;;;20.30;99.90;;;;;;1904886;75;21157;-77
2022/10/12 17:13:40;;;;;;;6.85;3.42;;;20.20;99.90;;;;;;1914130;73;21161;-76
2022/10/12 17:22:35;;;;;;;8.90;3.55;;;20.00;99.90;;;;;;1953271;72;22252;-76
2022/10/12 17:25:26;;;;;;;6.70;3.55;;;19.90;99.90;;;;;;1933724;73;21057;-77
2022/10/12 17:28:18;;;;;;;7.47;3.33;;;19.80;99.90;;;;;;1936810;73;21098;-77
2022/10/12 17:31:10;;;;;;;7.28;3.60;;;19.70;99.90;;;;;;1928527;73;21126;-77
2022/10/12 17:34:02;;;;;;;9.03;3.65;;;19.70;99.90;;;;;;1923302;73;21068;-76
2022/10/12 17:36:56;;;;;;;7.30;3.40;;;19.60;99.90;;;;;;1921896;73;21182;-76
2022/10/12 17:39:49;;;;;;;9.48;3.65;;;19.40;99.90;;;;;;1924336;73;21157;-76
2022/10/12 17:42:40;;;;;;;8.48;3.08;;;19.30;99.90;;;;;;1921601;73;21227;-76
2022/10/12 17:45:32;;;;;;;7.83;3.80;;;19.30;99.90;;;;;;1923305;73;21244;-76
2022/10/12 17:51:04;;;;;;;5.85;3.02;;;19.10;99.90;;;;;;1916667;72;22301;-79
2022/10/12 17:53:55;;;;;;;4.85;3.33;;;19.00;99.90;;;;;;1883537;75;21116;-77
2022/10/12 17:56:47;;;;;;;8.98;4.08;;;18.90;99.90;;;;;;1912084;75;21087;-77
2022/10/12 18:02:20;;;;;;;4.90;3.12;;;18.50;99.90;;;;;;1930761;72;22191;-78
2022/10/12 18:05:12;;;;;;;6.05;3.42;;;18.50;99.90;;;;;;1889605;75;21132;-77
2022/10/12 18:08:03;;;;;;;6.92;3.65;;;18.40;99.90;;;;;;1914011;75;21109;-76